Aeroporto :
LOGIN :

Iscrizione | Disclaimer

   EN    FR    IT 

 










Sommario :    VFR   VFR Marginale   IFR   IFR Intensivo   IFR Molto Intensivo
Visibilità : 
Base nubi : 
>= 8 km
>= 3000ft
5 / 8 km
1000 / 3000 ft
1500m / 5 km
500 / 1000 ft
800 / 1500m
200 / 500 ft
< 800m
< 200 ft
Simboli :   Temporali  Nebbia  Neve Forte  Precipitazioni Forti  Vento > 20 kt
SIGMETs :   Varie  Temporali  Ghiacco  Turbolenza  Onda orograficha  Ceneri Vulcaniche






- Altitudine del aeroporto : 796 ft
- Codice IATA : SYT


LFLN - Saint-Yan

ULTIMO METAR :
  • 241230Z AUTO 26010KT 200V280 9999 SCT043 SCT050 BKN060 10/01 Q1005 TEMPO SHRA FEW030CB

METARs OBSOLETI :
  • 241200Z AUTO 20006KT 160V230 9999 FEW044 BKN056 09/01 Q1005 TEMPO SHRA FEW030CB
  • 241130Z AUTO 19006KT 140V230 9999 BKN044 OVC054 09/01 Q1005 TEMPO SHRA FEW030CB
  • 241100Z AUTO 15005KT 9999 BKN044 BKN056 OVC068 08/00 Q1005 TEMPO SHRA FEW030CB
  • 241030Z AUTO 20004KT 140V270 9999 SCT042 OVC052 08/00 Q1005 TEMPO SHRA FEW030CB
  • 241000Z AUTO 18005KT 150V220 CAVOK 07/01 Q1005 TEMPO SHRA FEW030CB
  • 240930Z AUTO 17003KT CAVOK 07/01 Q1004 TEMPO SHRA FEW030CB
  • 240900Z AUTO 23005KT 190V260 9999 -RA FEW018 SCT041 OVC052 05/00 Q1004 TEMPO SCT035TCU
  • 240830Z AUTO 19006KT CAVOK 05/00 Q1004 TEMPO SCT035TCU
  • 240800Z AUTO 19004KT CAVOK 04/M00 Q1004 TEMPO SCT030TCU

TAF TAF LFLN
Valido dal 24 a 12 ore il 24 a 21 ore UTC


241100Z 2412/2421 23008KT CAVOK
TEMPO 2412/2418 -SHRA SCT035TCU
PROB30
TEMPO 2412/2417 SHRA FEW030CB



MetMap, La meteo Aeronautica in un colpo d'occhio ! - Copyright ORBIFLY Dicembre 2007 - Disclaimer

ORBIFLY MET'MAP TEAM :

Programmazione e sviluppo : Alexandra Zaïnal
Concezione : Baudouin d'Aumeries
Supporto tecnico e logistico : Manuel Goepfert
Aiuto : Marc-Olivier Méhu
Aiuto per la traduzione : Arnaldo La Scala




FONTI E CREDITI :

   NOAA